Palmer, Arkansas
Current Conditions -  °F | °C
As of 1:35 PM on Thursday 27 Nov 2014 (Local Time) from KSGT Reporting Station
Clear Clear  
Wind Chill:   Ceiling: Unl
Heat Index:   Visibility: 10mi
Dew Point: -3°   Wind: 6mph
Humidity: 46%   Direction: 20°NNE
Pressure: 30.5"   Gusts: NA
Location:  34.5919°N, 91.1409°W
Report Text: KSGT 271935Z AUTO 02005KT 10SM CLR 08/M03 A3050 RMK AO1
Loading
Personal Weather Stations






























Interactive Weather Map New forecast layout! Learn more

10-Day Weather Forecast

Advertisements
Track Severe Weather on mobile